首页
METAR-TAF:

METAR-TAF

机场 :

麦卡伦国际机场

拉斯维加斯, 内华达州, 美国

纬度: 36-04-44N, 经度: 115-09-19W, 海拔: 663米

当前天气观测

该预报发布于1小时和6分钟前的21:56 UTC
风速13节,风向南转西南,有时为24节阵风
温度 42°C
湿度 6%
气压 1005 hPa
能見度: 16.1公里
天空无云

METAR: KLAS 152156Z 21013G24KT 10SM CLR 42/M03 A2968 RMK AO2 SLP014 T04171033 $

时间: 16:02 (23:02 UTC)

预报

该预报发布于2小时和21分钟前的20:41 UTC
预报有效从15日的 21点(UTC)到 16日的 24点(UTC)
风速16节,风向南转西南,有时为26节阵风
能見度: 10公里
天空无云
从 16日的 0300点(UTC)
风速14节,风向西转西南,有时为22节阵风
能見度: 10公里
天空无云
从 16日的 0600点(UTC)
风速14节,风向南转西南,有时为20节阵风
能見度: 10公里
天空无云
从 16日的 1400点(UTC)
风速5节,风向多变
能見度: 10公里
天空无云

TAF: KLAS 152041Z 1521/1624 21016G26KT P6SM SKC FM160300 24014G22KT P6SM SKC FM160600 20014G20KT P6SM SKC FM161400 VRB05KT P6SM SKC

超过4000个机场的气象观测和天气预报(METAR&TAF报告)。

可查询的气象台以黄色和红色小点在地图上表示。

将鼠标移到小点上方,可查看气象台名称。

然后点击查看天气观测和预报。

如需切换地图:点击带黑十字的绿色按钮放大地图;点击带横线的绿色按钮缩小地图;或者点击绿色箭头查看邻近地区的地图。


METAR-TAF: